Time;durP1;ratioP1;P1;durP2;ratioP2;P2;SDS_P1;SDS_P2;PMS_P1;PMS_P2;Temp;Humidity;BMP_temperature;BMP_pressure;BME280_temperature;BME280_humidity;BME280_pressure;Samples;Min_cycle;Max_cycle;Signal;HPM_P1;HPM_P2
2023/06/29 00:00:31;;;;;;;2.97;2.63;;;13.80;82.60;;;;;;2019352;29;20262;-66
2023/06/29 00:01:32;;;;;;;3.77;2.80;;;13.80;83.00;;;;;;2030242;29;20886;-66
2023/06/29 00:02:33;;;;;;;2.88;2.55;;;13.80;83.40;;;;;;2030969;29;21003;-66
2023/06/29 00:03:34;;;;;;;2.77;2.50;;;13.70;83.70;;;;;;2031745;29;20233;-66
2023/06/29 00:04:35;;;;;;;3.60;2.60;;;13.70;83.80;;;;;;2031988;29;20737;-66
2023/06/29 00:05:36;;;;;;;5.10;3.03;;;13.70;83.60;;;;;;2039021;29;20243;-66
2023/06/29 00:06:37;;;;;;;4.37;2.77;;;13.60;85.20;;;;;;2035275;29;20235;-66
2023/06/29 00:07:38;;;;;;;4.10;2.90;;;13.60;85.60;;;;;;2027759;29;20229;-66
2023/06/29 00:08:40;;;;;;;6.65;3.30;;;13.60;84.30;;;;;;2027903;29;20241;-66
2023/06/29 00:09:40;;;;;;;4.57;2.60;;;13.60;84.20;;;;;;2028308;29;20238;-66
2023/06/29 00:10:41;;;;;;;3.00;2.70;;;13.60;84.30;;;;;;2035418;29;20789;-66
2023/06/29 00:11:43;;;;;;;2.67;2.37;;;13.60;84.30;;;;;;2037575;29;20784;-65
2023/06/29 00:12:43;;;;;;;3.03;2.72;;;13.60;84.10;;;;;;2031426;29;20472;-66
2023/06/29 00:13:44;;;;;;;4.37;2.70;;;13.70;83.70;;;;;;2031313;29;20232;-66
2023/06/29 00:14:45;;;;;;;4.77;2.90;;;13.70;83.60;;;;;;2027890;29;20306;-66
2023/06/29 00:15:46;;;;;;;3.90;2.37;;;13.70;83.60;;;;;;2034784;29;20319;-66
2023/06/29 00:16:50;;;;;;;2.92;2.55;;;13.70;84.10;;;;;;2035235;29;20224;-66
2023/06/29 00:17:51;;;;;;;3.90;3.03;;;13.70;84.40;;;;;;2027988;29;20680;-66
2023/06/29 00:18:55;;;;;;;3.15;2.60;;;13.70;84.80;;;;;;2031855;29;20253;-66
2023/06/29 00:19:56;;;;;;;4.82;2.67;;;13.60;84.80;;;;;;2031080;29;20819;-66
2023/06/29 00:20:57;;;;;;;4.05;2.85;;;13.60;85.10;;;;;;2031457;29;20278;-66
2023/06/29 00:21:58;;;;;;;4.30;2.80;;;13.60;85.30;;;;;;2030908;29;20229;-66
2023/06/29 00:22:59;;;;;;;5.20;3.17;;;13.60;85.10;;;;;;2029845;29;20252;-66
2023/06/29 00:24:02;;;;;;;2.60;2.40;;;13.70;84.50;;;;;;2027729;29;20233;-65
2023/06/29 00:25:03;;;;;;;4.38;2.88;;;13.70;84.10;;;;;;2029132;29;20248;-66
2023/06/29 00:26:05;;;;;;;3.00;2.70;;;13.70;83.80;;;;;;2031336;29;20189;-66
2023/06/29 00:27:06;;;;;;;2.47;2.25;;;13.70;83.60;;;;;;2031679;29;20324;-66
2023/06/29 00:28:08;;;;;;;3.58;2.65;;;13.70;83.60;;;;;;2034759;29;20242;-66
2023/06/29 00:29:09;;;;;;;2.92;2.63;;;13.80;83.10;;;;;;2037271;29;20663;-66
2023/06/29 00:30:10;;;;;;;3.80;2.88;;;13.70;82.80;;;;;;2035441;29;20209;-66
2023/06/29 00:31:11;;;;;;;3.22;2.65;;;13.60;84.30;;;;;;2037266;29;20192;-66
2023/06/29 00:32:13;;;;;;;3.10;2.80;;;13.60;83.40;;;;;;2027267;29;20198;-66
2023/06/29 00:33:13;;;;;;;3.10;2.75;;;13.70;83.50;;;;;;2030155;29;20712;-66
2023/06/29 00:34:15;;;;;;;4.37;2.50;;;13.60;83.10;;;;;;2027637;29;20272;-66
2023/06/29 00:35:15;;;;;;;3.10;2.78;;;13.60;83.30;;;;;;2037890;28;20691;-66
2023/06/29 00:36:17;;;;;;;4.38;2.85;;;13.50;83.60;;;;;;2035627;29;20735;-66
2023/06/29 00:37:18;;;;;;;4.13;2.97;;;13.50;84.00;;;;;;2035294;29;20199;-66
2023/06/29 00:38:18;;;;;;;3.17;2.87;;;13.60;84.10;;;;;;2021453;29;20225;-67
2023/06/29 00:39:20;;;;;;;3.90;2.90;;;13.60;84.30;;;;;;2021858;29;20620;-66
2023/06/29 00:40:21;;;;;;;3.30;2.80;;;13.60;84.20;;;;;;2030968;29;20332;-66
2023/06/29 00:41:21;;;;;;;3.90;3.00;;;13.50;84.30;;;;;;2015519;29;20382;-66
2023/06/29 00:42:22;;;;;;;4.13;2.67;;;13.50;84.50;;;;;;2023203;29;20364;-66
2023/06/29 00:43:23;;;;;;;7.10;2.73;;;13.50;84.30;;;;;;2019741;29;20241;-66
2023/06/29 00:44:24;;;;;;;3.83;2.47;;;13.50;84.30;;;;;;2030886;29;20703;-66
2023/06/29 00:45:25;;;;;;;4.10;2.40;;;13.50;84.20;;;;;;2025442;29;20289;-66
2023/06/29 00:46:26;;;;;;;5.68;3.00;;;13.40;84.50;;;;;;2031442;29;20232;-66
2023/06/29 00:47:27;;;;;;;3.58;2.80;;;13.40;84.80;;;;;;2028789;29;20231;-66
2023/06/29 00:48:28;;;;;;;3.80;2.70;;;13.40;85.10;;;;;;2025050;29;20237;-66
2023/06/29 00:49:29;;;;;;;3.50;2.60;;;13.30;85.10;;;;;;2027645;29;21003;-66
2023/06/29 00:50:31;;;;;;;3.25;2.70;;;13.30;85.50;;;;;;2039746;29;20323;-66
2023/06/29 00:51:32;;;;;;;3.58;2.55;;;13.40;86.10;;;;;;2022022;29;20230;-66
2023/06/29 00:52:34;;;;;;;3.70;2.80;;;13.40;86.00;;;;;;2013287;29;20245;-65
2023/06/29 00:53:34;;;;;;;4.03;2.97;;;13.40;85.90;;;;;;2018381;29;20317;-66
2023/06/29 00:54:35;;;;;;;3.27;2.97;;;13.40;86.00;;;;;;2020752;29;20230;-66
2023/06/29 00:55:37;;;;;;;4.43;2.90;;;13.40;85.50;;;;;;2018898;29;20245;-66
2023/06/29 00:56:38;;;;;;;3.15;2.65;;;13.30;85.40;;;;;;2026847;29;20288;-66
2023/06/29 00:57:39;;;;;;;4.33;2.80;;;13.30;85.50;;;;;;2038745;29;20318;-66
2023/06/29 00:58:41;;;;;;;2.72;2.53;;;13.30;85.50;;;;;;2038458;29;20517;-66
2023/06/29 00:59:41;;;;;;;5.10;3.13;;;13.30;85.40;;;;;;2031450;29;20273;-66
2023/06/29 01:00:42;;;;;;;3.27;2.93;;;13.40;85.50;;;;;;2031700;29;20233;-67
2023/06/29 01:01:45;;;;;;;3.23;2.70;;;13.30;85.60;;;;;;2029210;29;20208;-64
2023/06/29 01:02:46;;;;;;;4.75;2.90;;;13.40;85.60;;;;;;2014045;29;20589;-64
2023/06/29 01:03:47;;;;;;;3.13;2.83;;;13.30;85.50;;;;;;2039072;29;20211;-65
2023/06/29 01:04:48;;;;;;;3.20;2.80;;;13.20;86.00;;;;;;2027811;29;20229;-65
2023/06/29 01:05:55;;;;;;;4.60;2.93;;;13.20;86.40;;;;;;2039121;29;20749;-64
2023/06/29 01:07:05;;;;;;;2.90;2.40;;;13.20;86.40;;;;;;1999206;29;20237;-65
2023/06/29 01:08:16;;;;;;;4.13;3.10;;;13.20;87.10;;;;;;2023920;29;20216;-66
2023/06/29 01:09:18;;;;;;;3.00;2.70;;;13.20;87.60;;;;;;2030891;29;20236;-65
2023/06/29 01:10:24;;;;;;;3.65;2.95;;;13.20;87.30;;;;;;2020609;29;20201;-65
2023/06/29 01:11:25;;;;;;;5.80;2.75;;;13.10;87.70;;;;;;2032480;29;20377;-65
2023/06/29 01:12:26;;;;;;;3.17;2.83;;;13.10;87.70;;;;;;2020636;29;20248;-65
2023/06/29 01:13:28;;;;;;;4.15;3.35;;;13.10;87.30;;;;;;2022706;29;20190;-65
2023/06/29 01:14:32;;;;;;;5.10;2.85;;;13.10;87.40;;;;;;2012243;29;20692;-65
2023/06/29 01:15:36;;;;;;;3.17;2.88;;;13.10;87.40;;;;;;2022348;29;20192;-64
2023/06/29 01:16:38;;;;;;;4.95;2.60;;;13.20;87.40;;;;;;2013951;29;20330;-65
2023/06/29 01:17:40;;;;;;;6.95;3.00;;;13.20;87.70;;;;;;2024407;29;20197;-65
2023/06/29 01:18:44;;;;;;;3.15;2.85;;;13.10;87.60;;;;;;2008068;29;20876;-65
2023/06/29 01:19:48;;;;;;;5.22;2.85;;;13.00;87.70;;;;;;2024817;29;20333;-65
2023/06/29 01:20:50;;;;;;;5.13;3.00;;;13.00;88.30;;;;;;2014628;29;20241;-65
2023/06/29 01:22:02;;;;;;;5.82;2.83;;;12.90;88.70;;;;;;2025620;29;20197;-65
2023/06/29 01:23:16;;;;;;;3.20;2.90;;;12.90;88.80;;;;;;2022079;29;20645;-65
2023/06/29 01:24:18;;;;;;;3.05;2.72;;;12.90;88.90;;;;;;2023068;29;20345;-66
2023/06/29 01:25:20;;;;;;;4.10;2.95;;;12.90;89.10;;;;;;2024865;29;20193;-65
2023/06/29 01:26:22;;;;;;;4.18;2.80;;;13.00;88.80;;;;;;2013513;29;20392;-65
2023/06/29 01:27:23;;;;;;;5.32;3.53;;;13.00;88.80;;;;;;2029491;29;20235;-65
2023/06/29 01:28:24;;;;;;;3.27;2.70;;;12.90;88.50;;;;;;2024025;29;20594;-65
2023/06/29 01:29:25;;;;;;;4.43;2.90;;;12.80;88.80;;;;;;2036123;29;20679;-65
2023/06/29 01:30:27;;;;;;;3.57;3.07;;;12.80;89.10;;;;;;2021211;29;20220;-65
2023/06/29 01:31:28;;;;;;;3.72;3.03;;;12.80;89.40;;;;;;2039670;29;20480;-65
2023/06/29 01:32:34;;;;;;;4.97;2.67;;;12.70;89.70;;;;;;2029373;29;20228;-65
2023/06/29 01:33:35;;;;;;;4.78;2.95;;;12.80;89.40;;;;;;2039510;29;20223;-65
2023/06/29 01:34:38;;;;;;;3.20;3.00;;;12.80;89.40;;;;;;2021757;29;20251;-65
2023/06/29 01:35:39;;;;;;;3.78;3.20;;;12.90;89.30;;;;;;2028228;29;20185;-65
2023/06/29 01:36:49;;;;;;;3.35;2.78;;;12.90;88.80;;;;;;2024977;29;20295;-65
2023/06/29 01:38:07;;;;;;;4.32;2.95;;;12.90;89.20;;;;;;2032817;29;20208;-65
2023/06/29 01:39:20;;;;;;;3.33;3.03;;;12.70;89.50;;;;;;2016503;29;20220;-65
2023/06/29 01:40:27;;;;;;;5.10;2.95;;;12.60;90.20;;;;;;2020960;29;20280;-65
2023/06/29 01:41:29;;;;;;;4.53;3.40;;;12.70;90.40;;;;;;2026002;29;20185;-65
2023/06/29 01:42:33;;;;;;;2.95;2.65;;;12.70;90.30;;;;;;2006861;29;20237;-66
2023/06/29 01:43:35;;;;;;;3.55;2.83;;;12.70;90.30;;;;;;2018125;29;20193;-66
2023/06/29 01:44:36;;;;;;;4.35;2.97;;;12.80;90.00;;;;;;2020298;29;20228;-64
2023/06/29 01:45:37;;;;;;;3.87;3.03;;;12.80;89.90;;;;;;2034610;29;20232;-64
2023/06/29 01:46:42;;;;;;;3.65;2.70;;;12.80;90.00;;;;;;2011051;29;20233;-64
2023/06/29 01:47:43;;;;;;;3.95;2.80;;;12.80;90.60;;;;;;2024608;29;20213;-65
2023/06/29 01:48:44;;;;;;;5.17;2.63;;;12.80;90.00;;;;;;2012822;29;20312;-65
2023/06/29 01:49:45;;;;;;;3.72;3.33;;;12.80;89.60;;;;;;2024113;29;20190;-65
2023/06/29 01:50:48;;;;;;;3.50;2.93;;;12.80;89.70;;;;;;2014601;29;20699;-65
2023/06/29 01:51:49;;;;;;;2.80;2.60;;;12.80;89.80;;;;;;2031419;29;20432;-64
2023/06/29 01:52:49;;;;;;;4.10;3.20;;;12.80;89.70;;;;;;2015445;29;20230;-65
2023/06/29 01:53:54;;;;;;;2.87;2.60;;;12.80;89.80;;;;;;2017413;29;20621;-65
2023/06/29 01:54:55;;;;;;;6.75;3.00;;;12.80;89.90;;;;;;2014407;29;20268;-65
2023/06/29 01:55:55;;;;;;;3.30;3.00;;;12.70;90.00;;;;;;2028696;29;20224;-65
2023/06/29 01:56:57;;;;;;;3.83;2.97;;;12.80;90.20;;;;;;2021583;29;20232;-65
2023/06/29 01:57:57;;;;;;;9.02;3.67;;;12.70;90.40;;;;;;2022667;29;20576;-65
2023/06/29 01:59:01;;;;;;;5.23;3.20;;;12.70;90.60;;;;;;2023840;29;20234;-65
2023/06/29 02:00:03;;;;;;;5.50;3.00;;;12.70;90.60;;;;;;2035563;29;20192;-65
2023/06/29 02:01:04;;;;;;;3.95;3.10;;;12.70;90.70;;;;;;2021881;29;21024;-65
2023/06/29 02:02:06;;;;;;;3.90;3.40;;;12.70;90.70;;;;;;2031962;29;20259;-65
2023/06/29 02:03:06;;;;;;;4.72;3.63;;;12.70;90.80;;;;;;2022070;29;20232;-65
2023/06/29 02:04:07;;;;;;;4.63;3.13;;;12.60;91.00;;;;;;2021827;29;20181;-66
2023/06/29 02:05:08;;;;;;;3.17;2.83;;;12.50;91.40;;;;;;2039432;29;20427;-64
2023/06/29 02:06:09;;;;;;;4.22;3.30;;;12.50;91.70;;;;;;2023521;29;20176;-66
2023/06/29 02:07:10;;;;;;;2.93;2.53;;;12.50;91.60;;;;;;2040135;29;20209;-65
2023/06/29 02:08:11;;;;;;;3.67;3.10;;;12.60;91.60;;;;;;2030988;29;20286;-65
2023/06/29 02:09:11;;;;;;;4.00;3.13;;;12.60;91.40;;;;;;2038139;29;20664;-65
2023/06/29 02:10:13;;;;;;;3.53;3.23;;;12.60;91.20;;;;;;2028192;28;20197;-65
2023/06/29 02:11:15;;;;;;;3.53;2.95;;;12.70;91.00;;;;;;2039108;29;20196;-65
2023/06/29 02:12:16;;;;;;;5.53;3.35;;;12.80;90.80;;;;;;2031571;29;20200;-65
2023/06/29 02:13:17;;;;;;;4.15;3.30;;;12.80;90.10;;;;;;2036092;29;20283;-65
2023/06/29 02:14:18;;;;;;;3.23;2.80;;;12.80;90.40;;;;;;2023409;29;20221;-65
2023/06/29 02:15:18;;;;;;;5.93;3.50;;;12.90;90.30;;;;;;2035321;29;20336;-65
2023/06/29 02:16:19;;;;;;;4.70;2.70;;;12.90;90.10;;;;;;2027185;28;20660;-65
2023/06/29 02:17:21;;;;;;;5.93;3.30;;;12.90;90.10;;;;;;2034684;29;20237;-65
2023/06/29 02:18:22;;;;;;;4.03;2.65;;;12.90;90.40;;;;;;2023239;29;20515;-66
2023/06/29 02:19:22;;;;;;;5.73;2.77;;;12.80;90.00;;;;;;2033395;29;20181;-66
2023/06/29 02:20:23;;;;;;;4.17;3.30;;;12.80;90.00;;;;;;2028959;28;20181;-65
2023/06/29 02:21:24;;;;;;;3.00;2.70;;;12.80;90.80;;;;;;2039247;29;20184;-65
2023/06/29 02:22:25;;;;;;;4.03;2.83;;;12.70;90.30;;;;;;2021014;29;20262;-66
2023/06/29 02:23:26;;;;;;;3.37;3.03;;;12.80;90.20;;;;;;2033347;29;20823;-66
2023/06/29 02:24:26;;;;;;;3.20;2.90;;;12.80;90.20;;;;;;2030879;29;20200;-66
2023/06/29 02:25:27;;;;;;;3.17;2.87;;;12.80;90.10;;;;;;2040304;29;20192;-66
2023/06/29 02:26:28;;;;;;;4.50;3.10;;;12.80;90.30;;;;;;2017473;29;20190;-66
2023/06/29 02:27:28;;;;;;;4.30;3.10;;;12.70;90.80;;;;;;2033263;29;20609;-66
2023/06/29 02:28:29;;;;;;;3.23;2.93;;;12.60;90.60;;;;;;2016818;29;20237;-66
2023/06/29 02:29:30;;;;;;;4.20;3.23;;;12.60;90.70;;;;;;2025965;29;20241;-66
2023/06/29 02:30:30;;;;;;;3.83;3.20;;;12.60;90.80;;;;;;2007861;29;20237;-65
2023/06/29 02:31:31;;;;;;;5.60;3.20;;;12.50;90.70;;;;;;2027285;29;20196;-65
2023/06/29 02:32:32;;;;;;;3.40;3.07;;;12.50;90.90;;;;;;2017793;29;20217;-66
2023/06/29 02:33:33;;;;;;;4.97;3.47;;;12.60;91.00;;;;;;2033230;29;20655;-66
2023/06/29 02:34:33;;;;;;;5.40;3.27;;;12.60;91.00;;;;;;2024579;29;20244;-66
2023/06/29 02:35:34;;;;;;;4.20;3.43;;;12.60;91.20;;;;;;2025710;29;20193;-66
2023/06/29 02:36:35;;;;;;;4.73;3.10;;;12.50;91.20;;;;;;2007377;29;20233;-66
2023/06/29 02:37:36;;;;;;;3.70;3.40;;;12.50;91.40;;;;;;2029090;29;20209;-66
2023/06/29 02:38:37;;;;;;;5.20;3.40;;;12.50;91.60;;;;;;2020071;29;20803;-66
2023/06/29 02:39:37;;;;;;;4.15;3.50;;;12.60;91.40;;;;;;2040452;29;20192;-66
2023/06/29 02:40:38;;;;;;;3.93;3.40;;;12.60;91.80;;;;;;2026438;29;20264;-66
2023/06/29 02:41:39;;;;;;;3.80;3.03;;;12.60;91.30;;;;;;2037308;29;20978;-66
2023/06/29 02:42:40;;;;;;;5.00;3.17;;;12.60;91.20;;;;;;2030981;29;20287;-66
2023/06/29 02:43:40;;;;;;;3.67;2.93;;;12.60;91.60;;;;;;2034348;29;20746;-66
2023/06/29 02:44:41;;;;;;;3.30;3.00;;;12.70;91.00;;;;;;2018301;29;20320;-65
2023/06/29 02:45:42;;;;;;;4.43;3.40;;;12.70;91.40;;;;;;2040762;29;20291;-65
2023/06/29 02:46:43;;;;;;;4.50;3.27;;;12.60;92.00;;;;;;2019610;29;20233;-65
2023/06/29 02:47:43;;;;;;;4.53;2.93;;;12.60;91.70;;;;;;2032904;29;20196;-66
2023/06/29 02:48:44;;;;;;;4.40;3.07;;;12.50;91.80;;;;;;2017201;29;20328;-67
2023/06/29 02:49:45;;;;;;;4.30;3.40;;;12.50;91.80;;;;;;2031502;29;20710;-65
2023/06/29 02:50:46;;;;;;;3.10;2.80;;;12.60;91.60;;;;;;2024845;29;20236;-65
2023/06/29 02:51:48;;;;;;;3.07;2.73;;;12.60;91.50;;;;;;2033185;29;20229;-65
2023/06/29 02:52:49;;;;;;;3.30;2.80;;;12.60;91.50;;;;;;2023460;29;21296;-64
2023/06/29 02:53:50;;;;;;;2.93;2.63;;;12.60;91.70;;;;;;2017516;29;20202;-65
2023/06/29 02:54:50;;;;;;;3.67;3.10;;;12.60;91.60;;;;;;2018194;29;20245;-64
2023/06/29 02:55:51;;;;;;;3.67;3.10;;;12.70;91.90;;;;;;2023598;29;20324;-64
2023/06/29 02:56:52;;;;;;;3.83;3.17;;;12.70;91.90;;;;;;2031147;29;20662;-65
2023/06/29 02:57:53;;;;;;;3.37;2.93;;;12.70;91.90;;;;;;2027452;29;20237;-65
2023/06/29 02:58:54;;;;;;;5.50;3.40;;;12.80;91.80;;;;;;2031643;29;20308;-64
2023/06/29 02:59:55;;;;;;;3.67;3.38;;;12.80;91.60;;;;;;2028569;29;20655;-65
2023/06/29 03:00:56;;;;;;;3.85;2.90;;;12.90;91.40;;;;;;2025682;29;20239;-65
2023/06/29 03:01:56;;;;;;;3.73;3.27;;;12.90;91.20;;;;;;2026729;29;20230;-65
2023/06/29 03:02:57;;;;;;;3.87;2.80;;;13.00;90.90;;;;;;2027865;29;20714;-65
2023/06/29 03:03:58;;;;;;;4.23;3.13;;;12.90;91.00;;;;;;2029550;29;20233;-64
2023/06/29 03:04:58;;;;;;;3.50;2.90;;;12.90;91.00;;;;;;2039785;29;20286;-65
2023/06/29 03:05:59;;;;;;;5.07;3.20;;;12.90;91.00;;;;;;2029628;29;20319;-65
2023/06/29 03:07:00;;;;;;;4.40;3.17;;;13.00;91.00;;;;;;2026244;29;20240;-65
2023/06/29 03:08:01;;;;;;;3.97;2.92;;;13.00;90.80;;;;;;2030818;29;20221;-66
2023/06/29 03:09:03;;;;;;;3.53;2.67;;;12.90;90.70;;;;;;2039676;29;20220;-66
2023/06/29 03:10:04;;;;;;;3.75;3.00;;;12.90;90.80;;;;;;2038750;29;20181;-65
2023/06/29 03:11:05;;;;;;;3.40;2.97;;;12.90;91.40;;;;;;2033107;29;20209;-65
2023/06/29 03:12:08;;;;;;;4.27;2.87;;;12.90;90.50;;;;;;2031598;29;20318;-65
2023/06/29 03:13:09;;;;;;;4.65;2.97;;;12.90;90.40;;;;;;2035419;29;20245;-65
2023/06/29 03:14:09;;;;;;;4.30;3.17;;;12.90;90.20;;;;;;2041761;29;20231;-65
2023/06/29 03:15:10;;;;;;;3.47;3.17;;;12.80;90.40;;;;;;2032239;29;20180;-65
2023/06/29 03:16:12;;;;;;;6.05;2.80;;;12.80;90.60;;;;;;2034049;29;20187;-64
2023/06/29 03:17:14;;;;;;;3.20;2.90;;;12.80;90.60;;;;;;2026096;29;20285;-65
2023/06/29 03:18:15;;;;;;;3.55;2.92;;;12.80;90.50;;;;;;2034479;29;20221;-65
2023/06/29 03:19:15;;;;;;;3.27;2.97;;;12.80;91.00;;;;;;2033599;29;20185;-65
2023/06/29 03:20:17;;;;;;;4.73;2.97;;;12.80;90.70;;;;;;2036736;29;20185;-65
2023/06/29 03:21:20;;;;;;;5.13;3.22;;;12.80;90.70;;;;;;2034885;29;20265;-66
2023/06/29 03:22:21;;;;;;;4.05;3.03;;;12.70;90.80;;;;;;2040082;29;20847;-66
2023/06/29 03:23:21;;;;;;;3.23;2.93;;;12.70;90.60;;;;;;2041935;29;20228;-65
2023/06/29 03:24:22;;;;;;;3.50;3.07;;;12.70;90.80;;;;;;2031847;29;20224;-65
2023/06/29 03:25:24;;;;;;;3.50;3.00;;;12.60;90.50;;;;;;2029813;29;20237;-65
2023/06/29 03:26:25;;;;;;;3.67;3.05;;;12.60;90.80;;;;;;2031906;29;20296;-65
2023/06/29 03:27:26;;;;;;;4.73;3.10;;;12.70;90.90;;;;;;2028669;29;20260;-65
2023/06/29 03:28:26;;;;;;;3.63;2.93;;;12.70;91.10;;;;;;2032594;29;20240;-65
2023/06/29 03:29:27;;;;;;;3.63;2.77;;;12.60;91.20;;;;;;2029239;29;20229;-65
2023/06/29 03:30:28;;;;;;;3.83;3.53;;;12.60;91.00;;;;;;2025891;29;20237;-66
2023/06/29 03:31:28;;;;;;;2.77;2.57;;;12.70;91.00;;;;;;2031196;29;20332;-65
2023/06/29 03:32:29;;;;;;;5.27;3.30;;;12.70;90.80;;;;;;2029367;29;20711;-65
2023/06/29 03:33:30;;;;;;;5.70;2.90;;;12.60;90.70;;;;;;2026095;29;20284;-66
2023/06/29 03:34:31;;;;;;;3.40;2.83;;;12.60;90.90;;;;;;2023712;29;20282;-65
2023/06/29 03:35:31;;;;;;;4.90;3.00;;;12.60;90.80;;;;;;2030096;29;20260;-65
2023/06/29 03:36:32;;;;;;;4.90;3.17;;;12.60;91.00;;;;;;2033822;29;20653;-67
2023/06/29 03:37:33;;;;;;;4.33;3.00;;;12.60;91.00;;;;;;2029133;29;20267;-65
2023/06/29 03:38:34;;;;;;;3.25;2.90;;;12.60;90.90;;;;;;2026066;29;20245;-65
2023/06/29 03:39:34;;;;;;;4.00;3.43;;;12.80;90.90;;;;;;2031634;29;20236;-65
2023/06/29 03:40:36;;;;;;;4.67;3.47;;;12.70;90.80;;;;;;2031376;29;20235;-65
2023/06/29 03:41:36;;;;;;;4.07;3.10;;;12.70;90.90;;;;;;2031687;29;20735;-65
2023/06/29 03:42:37;;;;;;;3.93;3.50;;;12.70;91.10;;;;;;2035035;29;20237;-65
2023/06/29 03:43:38;;;;;;;3.30;3.00;;;12.70;91.00;;;;;;2039110;29;20236;-65
2023/06/29 03:44:39;;;;;;;4.93;3.03;;;12.70;91.20;;;;;;2035164;29;20343;-65
2023/06/29 03:45:40;;;;;;;5.18;3.40;;;12.60;91.40;;;;;;2035106;29;20235;-65
2023/06/29 03:46:40;;;;;;;3.50;3.20;;;12.50;91.60;;;;;;2031744;29;20244;-65
2023/06/29 03:47:41;;;;;;;5.43;3.80;;;12.50;91.70;;;;;;2032403;29;20323;-65
2023/06/29 03:48:42;;;;;;;3.93;3.47;;;12.50;91.60;;;;;;2027649;29;20246;-65
2023/06/29 03:49:43;;;;;;;5.40;3.37;;;12.60;91.40;;;;;;2026116;29;20680;-65
2023/06/29 03:50:44;;;;;;;5.30;3.35;;;12.60;91.20;;;;;;2030238;29;20291;-65
2023/06/29 03:51:44;;;;;;;3.43;3.13;;;12.70;91.20;;;;;;2031302;29;20666;-65
2023/06/29 03:52:45;;;;;;;3.20;2.90;;;12.60;91.20;;;;;;2030994;29;20320;-65
2023/06/29 03:53:46;;;;;;;3.60;3.30;;;12.60;91.20;;;;;;2039111;29;20260;-65
2023/06/29 03:54:49;;;;;;;3.67;3.13;;;12.60;91.10;;;;;;2033361;29;20723;-65
2023/06/29 03:55:50;;;;;;;3.90;3.33;;;12.70;91.10;;;;;;2025807;29;20233;-65
2023/06/29 03:56:51;;;;;;;3.53;3.13;;;12.70;91.00;;;;;;2025890;29;20726;-65
2023/06/29 03:57:51;;;;;;;4.60;3.13;;;12.60;91.00;;;;;;2023625;29;20269;-65
2023/06/29 03:58:52;;;;;;;3.50;3.20;;;12.70;91.00;;;;;;2025181;29;20230;-65
2023/06/29 03:59:53;;;;;;;4.63;3.20;;;12.70;91.00;;;;;;2024383;29;20253;-65
2023/06/29 04:00:54;;;;;;;3.60;3.30;;;12.60;90.90;;;;;;2025156;29;20837;-65
2023/06/29 04:01:55;;;;;;;3.80;3.00;;;12.60;91.10;;;;;;2034999;29;20224;-65
2023/06/29 04:02:55;;;;;;;4.93;3.30;;;12.50;91.20;;;;;;2031026;29;20239;-65
2023/06/29 04:03:56;;;;;;;3.23;3.00;;;12.50;91.50;;;;;;2028260;29;20225;-65
2023/06/29 04:04:57;;;;;;;4.07;3.30;;;12.50;91.70;;;;;;2031057;29;20232;-65
2023/06/29 04:05:59;;;;;;;4.80;3.33;;;12.40;91.90;;;;;;2032140;29;20225;-65
2023/06/29 04:06:59;;;;;;;6.50;3.38;;;12.40;91.90;;;;;;2033154;29;20689;-65
2023/06/29 04:08:04;;;;;;;4.73;3.20;;;12.30;92.20;;;;;;2030030;29;20243;-65
2023/06/29 04:09:04;;;;;;;4.80;3.20;;;12.20;92.40;;;;;;2025285;29;20228;-66
2023/06/29 04:10:06;;;;;;;3.77;3.00;;;12.30;92.70;;;;;;2023769;29;20193;-65
2023/06/29 04:11:06;;;;;;;4.18;3.17;;;12.30;92.70;;;;;;2019363;29;20197;-65
2023/06/29 04:12:09;;;;;;;3.42;3.13;;;12.30;92.60;;;;;;2033584;29;20572;-65
2023/06/29 04:13:10;;;;;;;4.57;3.03;;;12.40;92.60;;;;;;2028158;29;20569;-66
2023/06/29 04:14:10;;;;;;;3.43;3.10;;;12.50;92.50;;;;;;2034449;29;20193;-66
2023/06/29 04:15:11;;;;;;;4.43;3.13;;;12.60;92.20;;;;;;2034928;29;20184;-65
2023/06/29 04:16:14;;;;;;;3.38;3.08;;;12.60;91.90;;;;;;2026507;29;20659;-65
2023/06/29 04:17:15;;;;;;;4.43;3.30;;;12.50;91.90;;;;;;2026768;29;20203;-65
2023/06/29 04:18:16;;;;;;;4.15;3.25;;;12.60;91.90;;;;;;2026203;29;20224;-66
2023/06/29 04:19:16;;;;;;;3.33;2.97;;;12.60;91.80;;;;;;2026625;29;20193;-65
2023/06/29 04:20:17;;;;;;;5.20;3.17;;;12.60;91.90;;;;;;2028500;29;20193;-66
2023/06/29 04:21:18;;;;;;;3.30;3.00;;;12.70;91.70;;;;;;2031091;29;20550;-65
2023/06/29 04:22:18;;;;;;;4.70;3.13;;;12.70;91.40;;;;;;2027592;29;20432;-64
2023/06/29 04:23:19;;;;;;;4.70;3.07;;;12.80;91.40;;;;;;2028292;29;20664;-64
2023/06/29 04:24:20;;;;;;;5.07;3.30;;;12.80;91.40;;;;;;2028788;29;20193;-65
2023/06/29 04:25:23;;;;;;;5.80;3.58;;;12.80;91.50;;;;;;2029444;29;20814;-65
2023/06/29 04:26:27;;;;;;;3.65;3.15;;;12.90;91.50;;;;;;2021966;29;20230;-65
2023/06/29 04:27:31;;;;;;;8.23;2.95;;;12.90;91.50;;;;;;2023889;29;20736;-65
2023/06/29 04:28:35;;;;;;;4.88;2.85;;;12.90;91.50;;;;;;2029361;29;20292;-65
2023/06/29 04:29:36;;;;;;;4.88;3.10;;;12.90;91.60;;;;;;2034210;29;20232;-66
2023/06/29 04:30:43;;;;;;;3.97;3.47;;;12.90;91.90;;;;;;2037412;29;20659;-66
2023/06/29 04:31:44;;;;;;;4.78;3.30;;;13.00;91.20;;;;;;2027323;29;20252;-66
2023/06/29 04:32:45;;;;;;;4.73;3.10;;;13.00;91.10;;;;;;2020739;29;20225;-66
2023/06/29 04:33:46;;;;;;;4.05;3.08;;;13.00;91.00;;;;;;2022042;29;20697;-66
2023/06/29 04:34:47;;;;;;;3.77;3.17;;;13.10;91.00;;;;;;2023340;29;20237;-66
2023/06/29 04:35:49;;;;;;;5.28;3.00;;;13.00;91.30;;;;;;2024511;29;20256;-66
2023/06/29 04:36:50;;;;;;;3.78;3.00;;;13.10;91.20;;;;;;2038641;29;20223;-66
2023/06/29 04:37:51;;;;;;;3.97;3.45;;;13.10;91.20;;;;;;2034726;29;20299;-66
2023/06/29 04:38:53;;;;;;;6.00;3.25;;;13.10;91.20;;;;;;2026980;29;20231;-66
2023/06/29 04:39:54;;;;;;;4.45;3.17;;;13.20;91.30;;;;;;2026651;29;20230;-66
2023/06/29 04:41:03;;;;;;;3.30;3.00;;;13.20;91.10;;;;;;2031127;29;20229;-66
2023/06/29 04:42:05;;;;;;;3.42;3.13;;;13.20;90.90;;;;;;2031151;29;20220;-66
2023/06/29 04:43:06;;;;;;;4.20;3.78;;;13.20;91.10;;;;;;2034857;29;20279;-66
2023/06/29 04:44:10;;;;;;;3.97;3.13;;;13.30;91.00;;;;;;2027803;29;20222;-66
2023/06/29 04:45:13;;;;;;;4.47;3.00;;;13.30;91.00;;;;;;2020775;29;20205;-66
2023/06/29 04:46:14;;;;;;;3.20;2.88;;;13.40;90.80;;;;;;2030491;29;20547;-66
2023/06/29 04:47:14;;;;;;;3.47;3.17;;;13.40;90.60;;;;;;2027814;29;21053;-66
2023/06/29 04:48:15;;;;;;;4.83;3.20;;;13.40;90.50;;;;;;2030098;29;20229;-66
2023/06/29 04:49:16;;;;;;;4.03;3.37;;;13.40;90.50;;;;;;2026927;29;20648;-66
2023/06/29 04:50:25;;;;;;;5.32;3.45;;;13.30;90.70;;;;;;2030217;29;20197;-66
2023/06/29 04:51:26;;;;;;;4.85;3.20;;;13.30;90.60;;;;;;2028672;29;20244;-66
2023/06/29 04:52:28;;;;;;;4.82;2.88;;;13.30;90.70;;;;;;2026678;29;20609;-66
2023/06/29 04:53:29;;;;;;;3.55;2.90;;;13.40;90.70;;;;;;2036514;29;20264;-66
2023/06/29 04:54:29;;;;;;;6.27;3.03;;;13.40;90.60;;;;;;2032519;29;20233;-66
2023/06/29 04:55:30;;;;;;;3.20;2.90;;;13.40;90.50;;;;;;2033753;29;20543;-66
2023/06/29 04:56:31;;;;;;;4.23;3.20;;;13.40;90.40;;;;;;2031654;29;20233;-66
2023/06/29 04:57:32;;;;;;;6.50;3.35;;;13.40;90.40;;;;;;2034621;29;20229;-66
2023/06/29 04:58:33;;;;;;;7.00;3.30;;;13.40;90.60;;;;;;2030686;29;20319;-66
2023/06/29 04:59:34;;;;;;;3.30;3.00;;;13.40;90.60;;;;;;2029205;29;20233;-66
2023/06/29 05:00:35;;;;;;;5.67;3.27;;;13.40;90.70;;;;;;2025319;29;20931;-66
2023/06/29 05:01:35;;;;;;;3.50;3.20;;;13.50;90.50;;;;;;2026936;29;20234;-66
2023/06/29 05:02:37;;;;;;;4.03;3.10;;;13.60;90.60;;;;;;2034550;29;20262;-66
2023/06/29 05:03:38;;;;;;;4.05;3.03;;;13.70;90.60;;;;;;2031043;29;20221;-66
2023/06/29 05:04:39;;;;;;;4.60;3.30;;;13.70;90.50;;;;;;2030621;29;20236;-66
2023/06/29 05:05:39;;;;;;;7.83;2.90;;;13.80;90.30;;;;;;2038577;29;20319;-66
2023/06/29 05:06:40;;;;;;;3.30;3.00;;;13.80;90.40;;;;;;2031531;29;20238;-66
2023/06/29 05:07:41;;;;;;;3.90;3.33;;;13.80;90.70;;;;;;2027454;29;20236;-66
2023/06/29 05:08:43;;;;;;;5.22;3.10;;;13.70;90.90;;;;;;2027360;29;20235;-66
2023/06/29 05:09:43;;;;;;;4.35;3.10;;;13.70;90.90;;;;;;2035057;29;20327;-66
2023/06/29 05:10:44;;;;;;;3.97;3.20;;;13.80;90.80;;;;;;2037803;29;20232;-66
2023/06/29 05:11:45;;;;;;;3.20;2.87;;;13.80;90.90;;;;;;2035038;29;20644;-66
2023/06/29 05:12:47;;;;;;;5.90;3.10;;;13.80;90.80;;;;;;2030185;29;20236;-66
2023/06/29 05:13:48;;;;;;;3.15;2.80;;;13.80;90.80;;;;;;2027339;29;20295;-66
2023/06/29 05:14:48;;;;;;;4.22;2.83;;;13.90;90.60;;;;;;2027379;29;20228;-65
2023/06/29 05:15:49;;;;;;;5.23;3.50;;;14.00;90.10;;;;;;2027522;29;20265;-65
2023/06/29 05:16:50;;;;;;;6.00;3.73;;;14.10;90.00;;;;;;2029673;29;20244;-65
2023/06/29 05:17:52;;;;;;;3.57;3.23;;;14.10;90.00;;;;;;2030382;29;20290;-65
2023/06/29 05:18:53;;;;;;;2.75;2.55;;;14.20;89.90;;;;;;2030056;29;20244;-65
2023/06/29 05:19:54;;;;;;;4.37;2.90;;;14.30;89.60;;;;;;2038028;29;20255;-65
2023/06/29 05:20:55;;;;;;;3.38;2.83;;;14.30;89.50;;;;;;2026387;29;20305;-65